Terminal Aerodrome Forecast
Issued by NWS San Angelo, TX

Current Version | Previous Version | Text Only | Print | Product List | Glossary On
Versions: 1 2 3 4 5 6 7 8 9 10 11 12 13 14 15 16
000
FTUS44 KSJT 290800 AAA
TAFSJT
TAF AMD
KSJT 290822Z 2908/3006 36011KT P6SM VCTS BKN035CB
     FM291200 19009KT P6SM SCT035
     FM292100 13007KT P6SM SCT070=

USA.gov is the U.S. government's official web portal to all federal, state and local government web resources and services.